createdAt,value
2017-09-20T00:00:42.382Z,10.77
2017-09-20T00:03:11.453Z,9.17
2017-09-20T00:05:40.003Z,8.97
2017-09-20T00:08:08.531Z,13.90
2017-09-20T00:10:37.011Z,11.00
2017-09-20T00:13:05.401Z,8.87
2017-09-20T00:15:33.809Z,11.43
2017-09-20T00:18:02.216Z,12.23
2017-09-20T00:20:31.385Z,16.40
2017-09-20T00:22:59.844Z,12.53
2017-09-20T00:25:28.236Z,12.97
2017-09-20T00:27:56.652Z,14.70
2017-09-20T00:30:25.056Z,12.87
2017-09-20T00:32:53.454Z,17.83
2017-09-20T00:35:21.861Z,14.63
2017-09-20T00:37:50.276Z,14.40
2017-09-20T00:40:18.830Z,14.60
2017-09-20T00:42:48.093Z,13.30
2017-09-20T00:45:17.552Z,13.70
2017-09-20T00:47:45.796Z,12.50
2017-09-20T00:50:14.499Z,18.43
2017-09-20T00:52:43.384Z,15.87
2017-09-20T00:55:11.922Z,14.90
2017-09-20T00:57:39.625Z,15.40
2017-09-20T01:00:08.453Z,17.03
2017-09-20T01:02:36.857Z,18.63
2017-09-20T01:05:05.252Z,18.20
2017-09-20T01:07:33.669Z,17.47
2017-09-20T01:10:01.709Z,18.67
2017-09-20T01:12:30.869Z,21.87
2017-09-20T01:14:58.935Z,21.33
2017-09-20T01:17:27.075Z,22.77
2017-09-20T01:19:55.582Z,20.57
2017-09-20T01:22:35.662Z,23.07
2017-09-20T01:25:03.370Z,22.50
2017-09-20T01:27:31.088Z,20.67
2017-09-20T01:29:59.151Z,20.93
2017-09-20T01:32:27.939Z,22.80
2017-09-20T01:34:57.332Z,22.27
2017-09-20T01:37:26.513Z,25.40
2017-09-20T01:39:57.406Z,24.07
2017-09-20T01:42:27.928Z,19.40
2017-09-20T01:44:57.789Z,22.90
2017-09-20T01:47:27.332Z,22.63
2017-09-20T01:49:57.326Z,26.50
2017-09-20T01:52:27.837Z,21.93
2017-09-20T01:54:59.068Z,23.77
2017-09-20T01:57:29.081Z,26.53
2017-09-20T02:00:00.620Z,24.20
2017-09-20T02:02:30.973Z,25.37
2017-09-20T02:05:01.049Z,23.40
2017-09-20T02:07:32.394Z,22.57
2017-09-20T02:10:01.664Z,26.20
2017-09-20T02:12:31.738Z,29.10
2017-09-20T02:15:02.784Z,25.67
2017-09-20T02:17:32.185Z,23.30
2017-09-20T02:20:00.775Z,25.00
2017-09-20T02:22:29.202Z,25.30
2017-09-20T02:24:58.418Z,29.90
2017-09-20T02:27:26.817Z,28.90
2017-09-20T02:29:55.272Z,25.87
2017-09-20T02:32:24.437Z,32.17
2017-09-20T02:34:52.644Z,34.40
2017-09-20T02:37:20.736Z,32.00
2017-09-20T02:39:48.789Z,32.43
2017-09-20T02:42:17.185Z,30.93
2017-09-20T02:44:45.616Z,34.00
2017-09-20T02:47:14.050Z,32.37
2017-09-20T02:49:42.261Z,32.60
2017-09-20T02:52:10.489Z,36.40
2017-09-20T02:54:39.737Z,31.47
2017-09-20T02:57:09.920Z,30.60
2017-09-20T02:59:39.389Z,31.07
2017-09-20T03:02:07.787Z,29.10
2017-09-20T03:04:36.197Z,33.07
2017-09-20T03:07:04.259Z,36.80
2017-09-20T03:09:32.661Z,38.53
2017-09-20T03:12:01.817Z,30.87
2017-09-20T03:14:30.233Z,35.07
2017-09-20T03:16:58.625Z,32.30
2017-09-20T03:19:27.809Z,28.10
2017-09-20T03:21:56.220Z,30.23
2017-09-20T03:24:24.616Z,36.80
2017-09-20T03:26:53.010Z,28.70
2017-09-20T03:29:21.429Z,33.10
2017-09-20T03:31:49.824Z,29.47
2017-09-20T03:34:18.993Z,31.50
2017-09-20T03:36:49.408Z,35.10
2017-09-20T03:39:18.592Z,30.27
2017-09-20T03:41:46.993Z,32.40
2017-09-20T03:44:15.396Z,28.13
2017-09-20T03:46:44.565Z,31.53
2017-09-20T03:49:12.968Z,29.00
2017-09-20T03:51:42.145Z,31.93
2017-09-20T03:54:11.126Z,33.27
2017-09-20T03:56:39.536Z,33.63
2017-09-20T03:59:08.716Z,30.37
2017-09-20T04:01:37.116Z,32.90
2017-09-20T04:04:06.276Z,41.20
2017-09-20T04:06:34.694Z,31.77
2017-09-20T04:09:03.099Z,32.90
2017-09-20T04:11:31.508Z,43.83
2017-09-20T04:13:59.926Z,34.70
2017-09-20T04:16:29.143Z,39.87
2017-09-20T04:18:57.535Z,32.83
2017-09-20T04:21:27.004Z,34.43
2017-09-20T04:23:56.163Z,38.70
2017-09-20T04:26:24.581Z,33.70
2017-09-20T04:28:53.503Z,34.33
2017-09-20T04:31:21.947Z,35.40
2017-09-20T04:33:51.121Z,37.40
2017-09-20T04:36:19.524Z,35.13
2017-09-20T04:38:48.686Z,37.43
2017-09-20T04:41:17.081Z,43.67
2017-09-20T04:43:46.078Z,37.40
2017-09-20T04:46:15.241Z,33.20
2017-09-20T04:48:43.628Z,45.67
2017-09-20T04:51:12.048Z,35.87
2017-09-20T04:53:40.451Z,39.30
2017-09-20T04:56:08.852Z,32.20
2017-09-20T04:58:37.257Z,33.17
2017-09-20T05:01:06.421Z,40.60
2017-09-20T05:03:34.822Z,41.87
2017-09-20T05:06:03.252Z,37.33
2017-09-20T05:08:31.714Z,36.93
2017-09-20T05:11:00.111Z,36.40
2017-09-20T05:13:30.331Z,39.73
2017-09-20T05:16:00.015Z,37.50
2017-09-20T05:18:28.423Z,39.43
2017-09-20T05:20:57.121Z,40.20
2017-09-20T05:23:25.564Z,36.63
2017-09-20T05:25:54.050Z,37.23
2017-09-20T05:28:22.472Z,32.90
2017-09-20T05:30:50.684Z,37.07
2017-09-20T05:33:19.655Z,39.27
2017-09-20T05:35:49.598Z,39.43
2017-09-20T05:38:17.905Z,37.80
2017-09-20T05:40:46.540Z,34.73
2017-09-20T05:43:15.727Z,41.83
2017-09-20T05:45:44.131Z,35.50
2017-09-20T05:48:13.346Z,36.00
2017-09-20T05:50:41.815Z,34.77
2017-09-20T05:53:10.212Z,42.87
2017-09-20T05:55:41.562Z,39.50
2017-09-20T05:58:10.058Z,37.20
2017-09-20T06:00:38.682Z,37.37
2017-09-20T06:03:08.180Z,33.77
2017-09-20T06:05:38.550Z,35.90
2017-09-20T06:08:07.484Z,33.50
2017-09-20T06:10:35.892Z,30.07
2017-09-20T06:13:04.308Z,33.77
2017-09-20T06:15:32.716Z,43.27
2017-09-20T06:18:01.125Z,32.77
2017-09-20T06:20:30.504Z,34.90
2017-09-20T06:22:58.903Z,31.37
2017-09-20T06:25:28.070Z,37.07
2017-09-20T06:27:56.478Z,36.37
2017-09-20T06:30:25.646Z,35.30
2017-09-20T06:32:54.055Z,28.40
2017-09-20T06:35:22.734Z,35.00
2017-09-20T06:37:51.918Z,34.33
2017-09-20T06:40:21.084Z,34.67
2017-09-20T06:42:49.495Z,35.47
2017-09-20T06:45:18.717Z,40.23
2017-09-20T06:47:47.177Z,35.37
2017-09-20T06:50:18.548Z,34.87
2017-09-20T06:52:47.628Z,31.33
2017-09-20T06:55:16.063Z,31.73
2017-09-20T06:57:46.402Z,33.33
2017-09-20T07:00:15.648Z,30.20
2017-09-20T07:02:44.206Z,33.57
2017-09-20T07:05:13.638Z,33.07
2017-09-20T07:07:43.047Z,35.27
2017-09-20T07:10:11.450Z,32.00
2017-09-20T07:12:39.699Z,33.97
2017-09-20T07:15:08.093Z,36.63
2017-09-20T07:17:36.491Z,34.33
2017-09-20T07:20:04.905Z,31.17
2017-09-20T07:22:33.321Z,33.77
2017-09-20T07:25:01.721Z,33.53
2017-09-20T07:27:30.129Z,33.23
2017-09-20T07:29:59.753Z,39.13
2017-09-20T07:32:27.959Z,29.70
2017-09-20T07:34:56.361Z,29.30
2017-09-20T07:37:24.765Z,33.77
2017-09-20T07:39:55.305Z,28.53
2017-09-20T07:42:23.874Z,28.87
2017-09-20T07:44:53.037Z,29.17
2017-09-20T07:47:21.437Z,28.17
2017-09-20T07:49:50.617Z,36.83
2017-09-20T07:52:19.041Z,36.10
2017-09-20T07:54:47.442Z,37.13
2017-09-20T07:57:15.859Z,36.50
2017-09-20T07:59:44.276Z,38.73
2017-09-20T08:02:12.681Z,29.07
2017-09-20T08:04:41.110Z,34.13
2017-09-20T08:07:10.279Z,29.17
2017-09-20T08:09:38.676Z,34.70
2017-09-20T08:12:07.097Z,30.30
2017-09-20T08:14:35.576Z,18.67
2017-09-20T08:17:03.994Z,18.70
2017-09-20T08:19:32.458Z,14.50
2017-09-20T08:22:02.698Z,10.93
2017-09-20T08:24:32.386Z,8.33
2017-09-20T08:27:02.467Z,9.37
2017-09-20T08:29:30.888Z,14.20
2017-09-20T08:31:59.271Z,7.93
2017-09-20T08:34:27.482Z,7.73
2017-09-20T08:36:56.650Z,5.97
2017-09-20T08:39:25.616Z,4.67
2017-09-20T08:41:54.077Z,4.10
2017-09-20T08:44:22.479Z,3.87
2017-09-20T08:46:50.877Z,11.50
2017-09-20T08:49:19.317Z,8.03
2017-09-20T08:51:47.795Z,5.57
2017-09-20T08:54:16.196Z,8.00
2017-09-20T08:56:44.597Z,5.80
2017-09-20T08:59:12.996Z,6.13
2017-09-20T09:01:42.193Z,6.03
2017-09-20T09:04:11.367Z,6.77
2017-09-20T09:06:40.201Z,9.47
2017-09-20T09:09:09.553Z,8.10
2017-09-20T09:11:38.545Z,10.03
2017-09-20T09:14:07.426Z,18.70
2017-09-20T09:16:35.833Z,22.87
2017-09-20T09:19:05.015Z,22.40
2017-09-20T09:21:34.261Z,31.60
2017-09-20T09:24:02.742Z,32.50
2017-09-20T09:26:31.222Z,30.20
2017-09-20T09:28:59.648Z,32.83
2017-09-20T09:31:28.057Z,36.37
2017-09-20T09:33:57.232Z,31.57
2017-09-20T09:36:25.458Z,31.37
2017-09-20T09:38:53.861Z,26.90
2017-09-20T09:41:22.295Z,36.03
2017-09-20T09:43:50.698Z,32.27
2017-09-20T09:46:19.188Z,31.57
2017-09-20T09:48:47.619Z,34.83
2017-09-20T09:51:16.350Z,41.33
2017-09-20T09:53:45.796Z,35.23
2017-09-20T09:56:14.306Z,45.80
2017-09-20T09:58:42.716Z,36.33
2017-09-20T10:01:12.259Z,33.70
2017-09-20T10:03:41.436Z,31.30
2017-09-20T10:06:09.647Z,35.60
2017-09-20T10:08:37.868Z,34.40
2017-09-20T10:11:06.306Z,34.63
2017-09-20T10:13:34.786Z,35.27
2017-09-20T10:16:03.198Z,31.87
2017-09-20T10:18:31.613Z,29.50
2017-09-20T10:20:59.666Z,30.50
2017-09-20T10:23:28.080Z,32.83
2017-09-20T10:25:57.425Z,32.47
2017-09-20T10:28:25.871Z,30.40
2017-09-20T10:30:54.283Z,33.23
2017-09-20T10:33:23.205Z,31.77
2017-09-20T10:35:52.761Z,26.57
2017-09-20T10:38:22.565Z,33.53
2017-09-20T10:40:51.955Z,32.23
2017-09-20T10:43:20.829Z,27.47
2017-09-20T10:45:49.321Z,33.83
2017-09-20T10:48:17.796Z,27.90
2017-09-20T10:50:47.948Z,28.70
2017-09-20T10:53:16.349Z,31.20
2017-09-20T10:55:44.773Z,31.67
2017-09-20T10:58:13.944Z,26.30
2017-09-20T11:00:42.348Z,26.13
2017-09-20T11:03:11.537Z,35.40
2017-09-20T11:05:40.761Z,31.13
2017-09-20T11:08:09.229Z,27.13
2017-09-20T11:10:37.712Z,26.33
2017-09-20T11:13:06.180Z,27.63
2017-09-20T11:15:35.501Z,24.00
2017-09-20T11:18:03.932Z,27.20
2017-09-20T11:20:32.425Z,25.23
2017-09-20T11:23:01.596Z,23.47
2017-09-20T11:25:31.368Z,26.50
2017-09-20T11:28:00.656Z,24.77
2017-09-20T11:30:30.448Z,30.17
2017-09-20T11:32:59.379Z,29.00
2017-09-20T11:35:27.784Z,27.50
2017-09-20T11:37:56.278Z,34.40
2017-09-20T11:40:25.630Z,31.37
2017-09-20T11:42:54.033Z,24.97
2017-09-20T11:45:22.432Z,25.67
2017-09-20T11:47:50.836Z,26.00
2017-09-20T11:50:19.996Z,22.73
2017-09-20T11:52:48.406Z,21.93
2017-09-20T11:55:16.832Z,26.97
2017-09-20T11:57:45.230Z,25.50
2017-09-20T12:00:13.648Z,22.50
2017-09-20T12:02:42.843Z,22.50
2017-09-20T12:05:11.254Z,23.80
2017-09-20T12:07:39.674Z,22.27
2017-09-20T12:10:09.203Z,16.83
2017-09-20T12:12:39.181Z,17.30
2017-09-20T12:15:08.785Z,16.73
2017-09-20T12:17:38.781Z,14.23
2017-09-20T12:20:08.598Z,18.00
2017-09-20T12:22:38.308Z,16.97
2017-09-20T12:25:07.078Z,18.47
2017-09-20T12:27:35.492Z,15.47
2017-09-20T12:30:04.024Z,11.37
2017-09-20T12:32:32.483Z,13.73
2017-09-20T12:35:01.650Z,13.90
2017-09-20T12:37:30.086Z,15.00
2017-09-20T12:39:58.483Z,16.27
2017-09-20T12:42:26.885Z,19.50
2017-09-20T12:44:55.318Z,16.87
2017-09-20T12:47:23.717Z,14.10
2017-09-20T12:49:52.157Z,14.83
2017-09-20T12:52:20.656Z,16.20
2017-09-20T12:54:49.060Z,14.83
2017-09-20T12:57:17.467Z,13.30
2017-09-20T12:59:46.090Z,16.77
2017-09-20T13:02:15.170Z,16.97
2017-09-20T13:04:44.410Z,22.90
2017-09-20T13:07:12.841Z,12.90
2017-09-20T13:09:41.414Z,12.43
2017-09-20T13:12:10.576Z,12.73
2017-09-20T13:14:38.993Z,13.20
2017-09-20T13:17:08.154Z,13.77
2017-09-20T13:19:36.564Z,18.60
2017-09-20T13:22:05.772Z,15.20
2017-09-20T13:24:34.936Z,11.50
2017-09-20T13:27:03.339Z,12.63
2017-09-20T13:29:32.519Z,15.07
2017-09-20T13:32:00.916Z,13.43
2017-09-20T13:34:30.084Z,15.77
2017-09-20T13:36:58.316Z,15.97
2017-09-20T13:39:26.712Z,16.07
2017-09-20T13:41:55.124Z,13.33
2017-09-20T13:44:24.398Z,15.10
2017-09-20T13:46:53.131Z,12.33
2017-09-20T13:49:22.632Z,17.17
2017-09-20T13:51:51.762Z,13.67
2017-09-20T13:54:20.175Z,11.90
2017-09-20T13:56:48.589Z,14.67
2017-09-20T13:59:17.069Z,11.67
2017-09-20T14:01:46.041Z,12.97
2017-09-20T14:04:14.440Z,13.73
2017-09-20T14:06:43.642Z,12.50
2017-09-20T14:09:12.050Z,16.07
2017-09-20T14:11:42.194Z,13.17
2017-09-20T14:14:10.614Z,16.10
2017-09-20T14:16:39.099Z,14.07
2017-09-20T14:19:07.497Z,14.70
2017-09-20T14:21:35.909Z,13.67
2017-09-20T14:24:04.347Z,16.37
2017-09-20T14:26:32.808Z,13.17
2017-09-20T14:29:02.473Z,13.03
2017-09-20T14:31:31.221Z,12.67
2017-09-20T14:34:01.648Z,13.10
2017-09-20T14:36:30.411Z,12.90
2017-09-20T14:38:59.117Z,16.20
2017-09-20T14:41:27.581Z,15.40
2017-09-20T14:43:56.001Z,13.27
2017-09-20T14:46:24.394Z,13.80
2017-09-20T14:48:52.809Z,14.73
2017-09-20T14:51:21.998Z,15.00
2017-09-20T14:53:51.209Z,15.80
2017-09-20T14:56:19.612Z,18.50
2017-09-20T14:58:48.029Z,16.57
2017-09-20T15:01:16.424Z,16.50
2017-09-20T15:03:45.655Z,11.90
2017-09-20T15:06:14.127Z,14.97
2017-09-20T15:08:42.548Z,17.53
2017-09-20T15:11:10.598Z,17.13
2017-09-20T15:13:39.016Z,13.23
2017-09-20T15:16:07.452Z,15.27
2017-09-20T15:18:36.179Z,14.17
2017-09-20T15:21:05.413Z,13.17
2017-09-20T15:23:33.826Z,15.57
2017-09-20T15:26:02.246Z,13.17
2017-09-20T15:28:31.442Z,14.00
2017-09-20T15:31:00.615Z,15.27
2017-09-20T15:33:29.020Z,14.53
2017-09-20T15:35:57.476Z,22.70
2017-09-20T15:38:25.915Z,22.63
2017-09-20T15:40:54.319Z,19.97
2017-09-20T15:43:22.742Z,17.87
2017-09-20T15:45:51.938Z,23.13
2017-09-20T15:48:21.119Z,23.90
2017-09-20T15:50:55.978Z,19.50
2017-09-20T15:53:24.726Z,17.80
2017-09-20T15:55:53.132Z,20.03
2017-09-20T15:58:22.315Z,17.40
2017-09-20T16:00:51.482Z,19.20
2017-09-20T16:03:19.888Z,17.10
2017-09-20T16:05:49.082Z,15.83
2017-09-20T16:08:18.844Z,16.27
2017-09-20T16:10:47.482Z,16.97
2017-09-20T16:13:16.714Z,16.47
2017-09-20T16:15:45.402Z,16.63
2017-09-20T16:18:13.920Z,16.30
2017-09-20T16:20:42.436Z,16.20
2017-09-20T16:23:11.635Z,18.03
2017-09-20T16:25:40.803Z,18.53
2017-09-20T16:28:13.210Z,16.70
2017-09-20T16:30:41.609Z,16.40
2017-09-20T16:33:10.000Z,25.53
2017-09-20T16:35:38.432Z,17.33
2017-09-20T16:38:07.618Z,17.93
2017-09-20T16:40:36.269Z,18.17
2017-09-20T16:43:04.680Z,20.73
2017-09-20T16:45:33.852Z,20.00
2017-09-20T16:48:02.250Z,21.30
2017-09-20T16:50:31.430Z,19.60
2017-09-20T16:52:59.830Z,22.67
2017-09-20T16:55:29.005Z,19.53
2017-09-20T16:57:57.429Z,23.87
2017-09-20T17:00:25.986Z,22.40
2017-09-20T17:02:55.168Z,19.33
2017-09-20T17:08:15.121Z,28.37
2017-09-20T17:10:43.539Z,22.77
2017-09-20T17:13:11.951Z,21.53
2017-09-20T17:15:40.962Z,22.60
2017-09-20T17:18:09.190Z,22.57
2017-09-20T17:20:37.607Z,18.87
2017-09-20T17:23:06.061Z,21.40
2017-09-20T17:25:35.857Z,19.93
2017-09-20T17:28:04.299Z,19.63
2017-09-20T17:30:32.748Z,18.57
2017-09-20T17:33:01.928Z,20.13
2017-09-20T17:35:31.115Z,19.67
2017-09-20T17:38:01.064Z,18.20
2017-09-20T17:40:29.478Z,17.87
2017-09-20T17:42:57.890Z,20.07
2017-09-20T17:45:26.334Z,19.20
2017-09-20T17:47:54.750Z,19.80
2017-09-20T17:50:23.168Z,24.17
2017-09-20T17:52:51.610Z,25.20
2017-09-20T17:55:20.794Z,20.87
2017-09-20T17:57:49.252Z,22.53
2017-09-20T18:00:17.678Z,20.27
2017-09-20T18:02:46.877Z,16.60
2017-09-20T18:05:16.067Z,17.63
2017-09-20T18:07:45.251Z,17.03
2017-09-20T18:10:13.704Z,16.80
2017-09-20T18:12:42.132Z,16.20
2017-09-20T18:15:10.567Z,17.03
2017-09-20T18:17:39.709Z,22.83
2017-09-20T18:20:08.130Z,17.30
2017-09-20T18:22:36.568Z,16.47
2017-09-20T18:25:04.987Z,16.23
2017-09-20T18:27:33.400Z,17.37
2017-09-20T18:30:02.640Z,21.90
2017-09-20T18:32:31.926Z,17.87
2017-09-20T18:35:00.624Z,19.37
2017-09-20T18:37:29.052Z,17.90
2017-09-20T18:39:57.587Z,17.10
2017-09-20T18:42:26.079Z,17.07
2017-09-20T18:44:54.515Z,18.93
2017-09-20T18:47:23.699Z,21.73
2017-09-20T18:49:53.155Z,17.87
2017-09-20T18:52:21.592Z,17.00
2017-09-20T18:54:50.763Z,18.37
2017-09-20T18:57:19.184Z,17.77
2017-09-20T18:59:47.615Z,15.93
2017-09-20T19:02:16.023Z,17.57
2017-09-20T19:04:45.203Z,19.60
2017-09-20T19:07:13.775Z,17.00
2017-09-20T19:09:42.199Z,16.57
2017-09-20T19:12:10.612Z,19.37
2017-09-20T19:14:39.283Z,17.23
2017-09-20T19:17:07.959Z,15.07
2017-09-20T19:19:36.415Z,18.77
2017-09-20T19:22:04.850Z,17.40
2017-09-20T19:24:33.272Z,17.83
2017-09-20T19:27:02.262Z,16.73
2017-09-20T19:29:31.681Z,15.13
2017-09-20T19:32:00.087Z,16.57
2017-09-20T19:34:28.512Z,16.63
2017-09-20T19:36:57.514Z,15.93
2017-09-20T19:39:26.701Z,16.53
2017-09-20T19:41:55.828Z,14.60
2017-09-20T19:44:24.242Z,11.43
2017-09-20T19:46:52.666Z,16.67
2017-09-20T19:49:21.096Z,10.57
2017-09-20T19:51:50.518Z,11.50
2017-09-20T19:54:18.748Z,13.60
2017-09-20T19:56:47.956Z,16.50
2017-09-20T19:59:16.351Z,17.97
2017-09-20T20:01:44.578Z,16.67
2017-09-20T20:04:14.050Z,15.97
2017-09-20T20:06:42.574Z,16.20
2017-09-20T20:09:10.998Z,20.20
2017-09-20T20:11:39.417Z,18.10
2017-09-20T20:14:08.623Z,17.93
2017-09-20T20:16:36.861Z,20.03
2017-09-20T20:19:06.048Z,21.30
2017-09-20T20:21:34.480Z,21.23
2017-09-20T20:24:02.891Z,18.10
2017-09-20T20:26:31.305Z,19.20
2017-09-20T20:29:00.505Z,19.80
2017-09-20T20:31:28.931Z,17.70
2017-09-20T20:33:57.506Z,20.30
2017-09-20T20:36:25.949Z,15.30
2017-09-20T20:38:55.139Z,20.97
2017-09-20T20:41:24.319Z,19.30
2017-09-20T20:43:52.754Z,20.60
2017-09-20T20:46:20.979Z,20.77
2017-09-20T20:48:50.166Z,18.00
2017-09-20T20:51:18.598Z,18.10
2017-09-20T20:53:46.834Z,21.20
2017-09-20T20:56:15.835Z,21.40
2017-09-20T20:58:45.037Z,21.70
2017-09-20T21:01:13.506Z,15.87
2017-09-20T21:03:42.688Z,16.10
2017-09-20T21:06:11.138Z,14.80
2017-09-20T21:08:39.560Z,17.47
2017-09-20T21:11:08.749Z,15.30
2017-09-20T21:13:37.954Z,16.57
2017-09-20T21:16:07.126Z,18.80
2017-09-20T21:18:35.551Z,21.30
2017-09-20T21:21:04.012Z,18.60
2017-09-20T21:23:33.196Z,17.27
2017-09-20T21:26:02.380Z,17.40
2017-09-20T21:28:30.824Z,16.40
2017-09-20T21:30:59.252Z,20.87
2017-09-20T21:33:29.032Z,18.07
2017-09-20T21:35:57.472Z,14.63
2017-09-20T21:38:25.942Z,16.40
2017-09-20T21:40:54.354Z,19.83
2017-09-20T21:43:22.816Z,16.53
2017-09-20T21:45:51.290Z,16.40
2017-09-20T21:48:19.700Z,15.57
2017-09-20T21:50:48.127Z,17.80
2017-09-20T21:53:16.555Z,14.37
2017-09-20T21:55:44.983Z,13.73
2017-09-20T21:58:14.344Z,15.10
2017-09-20T22:00:42.766Z,14.40
2017-09-20T22:03:11.197Z,19.30
2017-09-20T22:05:39.635Z,21.03
2017-09-20T22:08:08.056Z,15.47
2017-09-20T22:10:36.484Z,15.80
2017-09-20T22:13:04.924Z,16.43
2017-09-20T22:15:44.651Z,13.33
2017-09-20T22:18:24.313Z,16.40
2017-09-20T22:21:03.903Z,16.00
2017-09-20T22:23:43.711Z,13.90
2017-09-20T22:26:24.095Z,13.23
2017-09-20T22:28:52.342Z,14.83
2017-09-20T22:31:21.352Z,15.07
2017-09-20T22:33:50.540Z,12.60
2017-09-20T22:36:19.764Z,17.17
2017-09-20T22:38:48.176Z,14.83
2017-09-20T22:41:16.588Z,14.67
2017-09-20T22:43:45.811Z,20.07
2017-09-20T22:46:14.231Z,14.00
2017-09-20T22:48:42.683Z,13.00
2017-09-20T22:51:10.919Z,12.33
2017-09-20T22:53:40.112Z,13.87
2017-09-20T22:56:08.533Z,15.90
2017-09-20T22:58:36.967Z,13.57
2017-09-20T23:01:06.150Z,11.20
2017-09-20T23:03:34.573Z,12.27
2017-09-20T23:06:03.105Z,12.10
2017-09-20T23:08:31.519Z,16.53
2017-09-20T23:11:00.697Z,14.20
2017-09-20T23:13:29.143Z,13.53
2017-09-20T23:15:57.566Z,16.47
2017-09-20T23:18:26.738Z,14.27
2017-09-20T23:20:55.163Z,12.90
2017-09-20T23:25:58.264Z,17.60
2017-09-20T23:28:26.672Z,15.60
2017-09-20T23:30:55.360Z,14.63
2017-09-20T23:33:23.791Z,15.07
2017-09-20T23:35:53.011Z,17.37
2017-09-20T23:38:21.424Z,14.50
2017-09-20T23:40:49.858Z,13.50
2017-09-20T23:43:18.279Z,13.73
2017-09-20T23:45:46.690Z,12.13
2017-09-20T23:48:15.903Z,13.30
2017-09-20T23:50:45.087Z,16.93
2017-09-20T23:53:14.281Z,15.53
2017-09-20T23:55:43.470Z,13.40
2017-09-20T23:58:11.897Z,13.10
